Loisir ou Compétition : Rejoignez un Club de la Fédération

Résultats

SAMSE NATIONAL TOUR FFS 3

LES CONFINS

MASS Dames

Jury de Compétition

Délégué Technique :
ROGUET JEAN CLAUDE (MB)
D.T. Adjoint :
FROSSARD CHRISTIAN (SA)
Dir. Epreuve :
 

Caractéristiques de la Piste

Piste :
 
Distance :
10,0 km
Point Haut :
 
Point Bas :
 
Montée Tot. :
 
Montée Max. :
 
Homologation :
 

Pénalité Appliquée :
5.0000
Coefficient :
 

Catégorie :
U18->SEN
Style :
 
Clt Dos Clt/Cat Code An Nom Prénom Com Club Temps Ecart Points
Classés
1 1 1/SEN FFS2122387 1984 THOMAS HUGUE CORALINE AP EMHM/CREVOUX 32:08.6 00:00.0 5.00
2 3 1/U20 FFS2638587 1996 CLAUDEL DELPHINE MV LA BRESSAUDE 32:23.8 00:15.2 16.03
3 2 2/SEN FFS1341311 1990 BUILLET MARION SA CS SAISIES 32:32.0 00:23.4 21.99
4 7 3/SEN FFS2617672 1994 CHOPARD LALLIER CELINE MJ VAL MORTEAU 32:34.6 00:26.0 23.87
5 11 2/U20 FFS2637859 1996 BENTZ CORALIE MB VILLARD/BOEG 32:45.6 00:37.0 31.86
6 12 4/SEN FFS2625482 1995 CARDON JULIE SA SC MENUIRES 32:56.4 00:47.8 39.70
7 10 5/SEN FFS2613018 1994 DEMANGEAT RACHEL SA CS LA FECLAZ 33:12.8 01:04.2 51.60
8 27 6/SEN FFS2620351 1993 CHORON ALICIA MB SC D'AGY 33:26.4 01:17.8 61.48
9 4 7/SEN FFS2622862 1993 KROMER MARIE MB PRAZ LYS-SOM 33:35.3 01:26.7 67.94
10 5 8/SEN FFS2633735 1995 DAMIANI LEA MB VILLARD/BOEG 33:40.9 01:32.3 72.00
11 13 3/U20 FFS2631427 1996 DEGRANGE MANON SA CS LA FECLAZ 33:43.2 01:34.6 73.67
12 24 1/U18 FFS2655078 1999 DOLCI FLORA AP AS EDELWEISS 33:51.7 01:43.1 79.84
13 43 2/U18 FFS2649507 1998 LAMBERT JENNIFER SA CS LA FECLAZ 34:12.7 02:04.1 95.09
14 19 4/U20 FFS2620619 1997 BULLE EMILIE DA US AUTRANNAI 34:26.1 02:17.5 104.81
15 31 3/U18 FFS2650540 1998 GUIGONNAT GILONNE MB VILLARD/BOEG 34:34.4 02:25.8 110.84
16 26 5/U20 FFS2638878 1997 FLOCHON LAURIE SA CS LA FECLAZ 34:34.8 02:26.2 111.13
17 50 4/U18 FFS2655073 1999 HEIMER SOPHIE MB VILLARD/BOEG 34:35.7 02:27.1 111.78
18 17 6/U20 FFS2615767 1997 BOVAGNE LINA MB CS MEGEVE 34:36.1 02:27.5 112.07
19 23 5/U18 FFS2649316 1998 VULLIET SOLENE MB SCNP ROCHOIS 34:40.3 02:31.7 115.12
20 8 9/SEN FFS2625590 1994 VULLIET CONSTANCE MB SC GD BORNAN 34:43.8 02:35.2 117.66
21 28 10/SEN FFS2624800 1995 TARDY NOEMIE SA CS LA FECLAZ 34:50.5 02:41.9 122.53
22 15 7/U20 FFS2638907 1997 GROS CECILE AP ES VALLOUISE 34:52.8 02:44.2 124.20
23 36 6/U18 FFS2667438 1999 GAL MELISSA MB SCNP ROCHOIS 35:11.1 03:02.5 137.48
24 55 7/U18 FFS2654456 1998 CHALLAMEL MARINE DA SN CHARTROUS 35:16.7 03:08.1 141.54
25 37 8/U20 FFS2647377 1996 LAURENCE CLEMENTINE MJ CSR PONTARLI 35:20.4 03:11.8 144.23
26 42 8/U18 FFS2648341 1999 COLIN LUCIE MJ SC GRANDVAUX 35:40.9 03:32.3 159.11
27 33 9/U18 FFS2644183 1998 PELLEGRIN LISA AP SC QUEYRAS 35:44.1 03:35.5 161.43
28 32 9/U20 FFS2654516 1996 TOURNAY FANNY SA CS LA FECLAZ 35:58.5 03:49.9 171.89
29 25 10/U20 FFS2643697 1996 ZAMBAUX LEA MJ OLYMP MT DOR 36:03.9 03:55.3 175.81
30 51 10/U18 FFS2654811 1999 MARJOLLET AMELIE MB SC GD BORNAN 36:22.6 04:14.0 189.38
31 41 11/U18 FFS2644726 1999 RICHON LOUISE SA CS LA FECLAZ 36:24.1 04:15.5 190.47
32 39 12/U18 FFS2627940 1999 FORTAS FANNY DA CS VILLARD 36:26.1 04:17.5 191.92
33 20 13/U18 FFS2649232 1998 GILBERT CORA AP SERRE CHEVAL 36:34.5 04:25.9 198.02
34 16 11/U20 FFS2626100 1997 LOCATELLI EVA DA SA MEAUDRAIS 36:36.8 04:28.2 199.69
35 29 14/U18 FFS2644377 1998 CHENAL CLEMENCE SA SC PEISEY VA 36:37.4 04:28.8 200.13
36 40 15/U18 FFS2637567 1999 SIMONNEAU SOLEA DA SA MEAUDRAIS 36:37.9 04:29.3 200.49
37 46 16/U18 FFS2668542 1999 MARTINET EVA MJ US GIRON 36:56.6 04:48.0 214.06
38 45 12/U20 FFS2649305 1997 SANDOZ OTHENIN JUSTINE MJ AS VERRIERES 37:03.9 04:55.3 219.36
39 49 17/U18 FFS2643373 1999 BARTHELEMY ANOUK DA VERCORS SKF 37:06.8 04:58.2 221.47
40 9 18/U18 FFS2649041 1998 QUINTIN LENA MB SC GD BORNAN 37:13.4 05:04.8 226.26
41 34 19/U18 FFS2650090 1998 PAULY ELOISE DA SNB CHAMROUS 37:27.5 05:18.9 236.49
42 30 13/U20 FFS2652903 1997 SALVI LAURA MJ A.S MOUTHE 37:28.4 05:19.8 237.15
43 35 14/U20 FFS2628759 1997 LYAUDET MARGOT LY US CORMARANC 37:34.2 05:25.6 241.36
44 21 20/U18 FFS2649037 1998 PIERREL MARGAUX MB SC GD BORNAN 37:45.8 05:37.2 249.78
45 47 21/U18 FFS2660862 1999 LOUIS JACQUET KIMA MJ AS VERRIERES 37:48.6 05:40.0 251.81
46 22 15/U20 FFS2619948 1997 BRON JULIE MB LES GETS S.C 37:49.4 05:40.8 252.39
47 56 22/U18 FFS2662222 1999 BUESSLER DORINE MB SC GD BORNAN 39:09.5 07:00.9 310.54
48 67 11/SEN FFS2683089 1978 DUPONT BALLET BAZ ALINE MB SC GD BORNAN 39:11.7 07:03.1 312.13
49 53 23/U18 FFS2649322 1998 MONNIER CHLOE MB SCNP ROCHOIS 39:29.2 07:20.6 324.84
50 38 24/U18 FFS2649036 1998 PESSEY LOTUS MB SC GD BORNAN 39:52.0 07:43.4 341.39
51 44 25/U18 FFS2648813 1998 MULLER EMMA MB DRAGONS ANNY 40:00.9 07:52.3 347.85
52 57 26/U18 FFS2654361 1999 JOMIER ANAELLE MB DRAGONS ANNY 40:10.5 08:01.9 354.82
53 52 27/U18 FFS2639530 1999 MOYSE CLAIRE MJ HT JURA SKI 40:10.8 08:02.2 355.04
54 18 16/U20 FFS2639197 1997 CHABRE MANON AP GAP-BAYARD 40:20.2 08:11.6 361.86
55 58 28/U18 FFS2649318 1998 POISSON SOLINE MB SCNP ROCHOIS 40:56.1 08:47.5 387.92
56 65 29/U18 FFS2649035 1998 PESSEY ROSE MB SC GD BORNAN 40:59.0 08:50.4 390.03
57 60 30/U18 FFS2654355 1999 BOSSY ANOUK MB DRAGONS ANNY 41:08.2 08:59.6 396.70
58 48 31/U18 FFS2649045 1998 MISSILLIER LEA MB SC GD BORNAN 41:10.1 09:01.5 398.08
59 64 32/U18 FFS2655089 1999 VISTE NAIS MB VILLARD/BOEG 41:10.4 09:01.8 398.30
60 61 33/U18 FFS2633017 1999 GABELLI LOLA MJ CSR PONTARLI 43:57.3 11:48.7 519.46
61 62 34/U18 FFS2665588 1999 PERY PAULINE MB SC D'AGY 44:20.3 12:11.7 536.15
62 59 12/SEN FFS2676759 1967 DELAHAYE NATHALIE SA BAUGES S.N 44:35.7 12:27.1 547.33
63 14 17/U20 FFS2643743 1997 BASTARD ROSSET ISALINE MB SC GD BORNAN 46:11.0 14:02.4 616.51
64 66 13/SEN FFS2253901 1956 PEQUIGNOT ODILE MV SC GUEBWILLE 48:59.7 16:51.1 738.97
Non traités
6 FFS2638906 1997 GIRAUD LAURIE AP ES VALLOUISE
54 FFS2661568 1999 SAILLET MARIE MB DRAGONS ANNY
63 FFS2643148 1999 AGNELLET ELEONORE MB CS LA CLUSAZ